createdAt,value
2022-09-11T00:00:56.515Z,1.30
2022-09-11T00:03:24.953Z,1.23
2022-09-11T00:05:53.939Z,1.30
2022-09-11T00:08:22.683Z,1.40
2022-09-11T00:10:50.392Z,1.43
2022-09-11T00:13:21.179Z,1.60
2022-09-11T00:15:51.934Z,1.50
2022-09-11T00:18:22.314Z,1.30
2022-09-11T00:20:53.675Z,1.30
2022-09-11T00:23:24.423Z,1.30
2022-09-11T00:25:53.090Z,1.50
2022-09-11T00:28:22.680Z,1.37
2022-09-11T00:30:59.875Z,1.47
2022-09-11T00:33:28.533Z,1.30
2022-09-11T00:35:58.976Z,1.30
2022-09-11T00:38:28.993Z,1.30
2022-09-11T00:40:59.166Z,1.37
2022-09-11T00:43:27.263Z,1.30
2022-09-11T00:45:58.589Z,1.00
2022-09-11T00:48:29.918Z,1.00
2022-09-11T00:50:59.429Z,1.00
2022-09-11T00:53:31.700Z,1.50
2022-09-11T00:56:05.359Z,0.90
2022-09-11T00:58:37.884Z,1.37
2022-09-11T01:01:06.082Z,1.20
2022-09-11T01:03:33.844Z,1.27
2022-09-11T01:06:01.979Z,1.10
2022-09-11T01:08:33.416Z,1.37
2022-09-11T01:11:14.171Z,1.67
2022-09-11T01:13:52.747Z,1.30
2022-09-11T01:16:26.035Z,1.50
2022-09-11T01:19:00.999Z,1.70
2022-09-11T01:21:52.340Z,1.40
2022-09-11T01:25:06.030Z,1.70
2022-09-11T01:27:41.782Z,1.30
2022-09-11T01:30:13.003Z,2.03
2022-09-11T01:32:49.659Z,1.43
2022-09-11T01:35:22.965Z,1.70
2022-09-11T01:38:00.762Z,1.50
2022-09-11T01:40:37.250Z,1.70
2022-09-11T01:43:12.831Z,1.30
2022-09-11T01:45:44.203Z,1.60
2022-09-11T01:48:17.080Z,1.30
2022-09-11T01:50:47.407Z,1.60
2022-09-11T01:53:18.740Z,1.10
2022-09-11T01:55:51.979Z,1.60
2022-09-11T01:58:27.149Z,1.80
2022-09-11T02:00:57.814Z,1.40
2022-09-11T02:03:32.355Z,1.77
2022-09-11T02:06:05.413Z,1.70
2022-09-11T02:08:40.038Z,1.73
2022-09-11T02:11:10.175Z,1.50
2022-09-11T02:13:46.854Z,1.60
2022-09-11T02:16:20.723Z,1.50
2022-09-11T02:18:57.606Z,1.60
2022-09-11T02:21:25.914Z,1.80
2022-09-11T02:23:55.347Z,1.73
2022-09-11T02:26:25.536Z,1.83
2022-09-11T02:28:55.564Z,1.40
2022-09-11T02:31:24.138Z,1.80
2022-09-11T02:33:52.146Z,1.97
2022-09-11T02:36:59.567Z,1.80
2022-09-11T02:40:00.214Z,1.93
2022-09-11T02:42:40.118Z,2.00
2022-09-11T02:45:24.554Z,1.50
2022-09-11T02:48:05.139Z,1.90
2022-09-11T02:50:41.372Z,1.73
2022-09-11T02:53:26.401Z,2.00
2022-09-11T02:56:01.593Z,1.80
2022-09-11T02:58:34.077Z,2.00
2022-09-11T03:01:04.398Z,2.07
2022-09-11T03:03:38.910Z,1.70
2022-09-11T03:06:09.078Z,1.90
2022-09-11T03:08:36.789Z,1.67
2022-09-11T03:11:04.485Z,1.60
2022-09-11T03:13:32.422Z,1.63
2022-09-11T03:16:03.200Z,2.10
2022-09-11T03:18:30.922Z,1.97
2022-09-11T03:20:58.675Z,1.83
2022-09-11T03:23:26.384Z,1.90
2022-09-11T03:25:54.899Z,1.60
2022-09-11T03:28:23.482Z,1.80
2022-09-11T03:30:52.761Z,1.70
2022-09-11T03:33:22.330Z,2.03
2022-09-11T03:35:49.942Z,2.30
2022-09-11T03:38:17.869Z,1.77
2022-09-11T03:40:45.755Z,1.70
2022-09-11T03:43:13.431Z,1.60
2022-09-11T03:45:41.127Z,2.33
2022-09-11T03:48:08.838Z,1.80
2022-09-11T03:50:37.813Z,2.20
2022-09-11T03:53:05.498Z,2.57
2022-09-11T03:55:33.488Z,1.73
2022-09-11T03:58:01.204Z,2.07
2022-09-11T04:00:28.886Z,2.40
2022-09-11T04:02:56.667Z,1.93
2022-09-11T04:05:25.422Z,2.37
2022-09-11T04:07:55.079Z,2.83
2022-09-11T04:10:22.800Z,2.73
2022-09-11T04:12:50.460Z,2.60
2022-09-11T04:15:18.167Z,2.90
2022-09-11T04:17:46.151Z,2.60
2022-09-11T04:20:14.012Z,3.07
2022-09-11T04:22:42.036Z,3.87
2022-09-11T04:25:12.416Z,2.70
2022-09-11T04:27:40.395Z,3.07
2022-09-11T04:30:09.378Z,2.80
2022-09-11T04:32:37.041Z,2.93
2022-09-11T04:35:04.976Z,2.87
2022-09-11T04:37:35.309Z,3.50
2022-09-11T04:40:03.584Z,3.57
2022-09-11T04:42:32.649Z,3.70
2022-09-11T04:45:00.311Z,3.00
2022-09-11T04:47:27.950Z,3.50
2022-09-11T04:49:55.584Z,3.40
2022-09-11T04:52:23.280Z,3.57
2022-09-11T04:54:51.146Z,3.30
2022-09-11T04:57:18.807Z,3.57
2022-09-11T04:59:48.527Z,3.90
2022-09-11T05:02:16.405Z,3.33
2022-09-11T05:04:44.110Z,3.83
2022-09-11T05:07:13.377Z,3.97
2022-09-11T05:09:41.114Z,3.93
2022-09-11T05:12:09.390Z,3.40
2022-09-11T05:14:37.868Z,4.30
2022-09-11T05:17:06.903Z,4.27
2022-09-11T05:19:34.585Z,4.00
2022-09-11T05:22:02.283Z,4.50
2022-09-11T05:24:29.929Z,3.80
2022-09-11T05:26:58.849Z,3.70
2022-09-11T05:29:32.215Z,4.03
2022-09-11T05:32:00.612Z,3.83
2022-09-11T05:34:30.365Z,3.87
2022-09-11T05:36:58.501Z,4.00
2022-09-11T05:39:26.359Z,3.63
2022-09-11T05:41:55.278Z,4.30
2022-09-11T05:44:23.009Z,4.03
2022-09-11T05:46:50.745Z,4.53
2022-09-11T05:49:19.395Z,4.37
2022-09-11T05:51:48.365Z,3.73
2022-09-11T05:54:16.319Z,4.00
2022-09-11T05:56:44.001Z,4.50
2022-09-11T05:59:14.957Z,4.27
2022-09-11T06:01:43.026Z,4.30
2022-09-11T06:04:12.169Z,4.20
2022-09-11T06:06:39.892Z,4.50
2022-09-11T06:09:09.253Z,4.43
2022-09-11T06:11:36.974Z,5.10
2022-09-11T06:14:04.961Z,4.30
2022-09-11T06:16:32.713Z,4.13
2022-09-11T06:19:00.401Z,4.77
2022-09-11T06:21:29.226Z,4.70
2022-09-11T06:23:56.925Z,4.37
2022-09-11T06:26:27.502Z,5.13
2022-09-11T06:28:55.606Z,4.93
2022-09-11T06:31:25.507Z,4.83
2022-09-11T06:33:53.617Z,5.10
2022-09-11T06:36:24.395Z,5.67
2022-09-11T06:38:54.865Z,5.47
2022-09-11T06:41:22.786Z,5.30
2022-09-11T06:43:52.065Z,5.33
2022-09-11T06:46:21.416Z,5.43
2022-09-11T06:48:50.691Z,5.03
2022-09-11T06:51:22.938Z,5.17
2022-09-11T06:53:58.655Z,5.53
2022-09-11T06:56:27.886Z,5.63
2022-09-11T06:58:57.193Z,5.80
2022-09-11T07:01:25.643Z,6.40
2022-09-11T07:03:55.423Z,6.17
2022-09-11T07:06:24.834Z,5.40
2022-09-11T07:08:53.293Z,5.63
2022-09-11T07:11:21.441Z,5.83
2022-09-11T07:13:49.348Z,5.87
2022-09-11T07:16:19.885Z,5.80
2022-09-11T07:18:48.888Z,5.80
2022-09-11T07:21:20.930Z,6.80
2022-09-11T07:23:51.971Z,5.20
2022-09-11T07:26:19.933Z,5.90
2022-09-11T07:28:50.165Z,5.57
2022-09-11T07:31:21.376Z,5.10
2022-09-11T07:33:50.420Z,5.80
2022-09-11T07:36:19.928Z,6.27
2022-09-11T07:38:49.574Z,5.30
2022-09-11T07:41:19.909Z,5.53
2022-09-11T07:43:48.243Z,6.37
2022-09-11T07:46:16.537Z,6.77
2022-09-11T07:48:47.504Z,6.23
2022-09-11T07:51:17.146Z,6.20
2022-09-11T07:53:46.632Z,6.33
2022-09-11T07:56:15.873Z,7.17
2022-09-11T07:58:44.342Z,6.70
2022-09-11T08:01:14.419Z,7.00
2022-09-11T08:03:43.430Z,7.27
2022-09-11T08:06:16.885Z,5.90
2022-09-11T08:08:48.978Z,7.90
2022-09-11T08:11:19.055Z,6.57
2022-09-11T08:13:50.759Z,6.47
2022-09-11T08:16:19.570Z,6.60
2022-09-11T08:18:48.113Z,6.73
2022-09-11T08:21:17.654Z,6.67
2022-09-11T08:23:46.889Z,6.57
2022-09-11T08:26:16.522Z,5.90
2022-09-11T08:28:45.077Z,6.40
2022-09-11T08:31:14.200Z,6.07
2022-09-11T08:33:42.098Z,7.03
2022-09-11T08:36:14.634Z,6.40
2022-09-11T08:38:44.548Z,6.73
2022-09-11T08:41:20.757Z,6.40
2022-09-11T08:43:52.341Z,6.50
2022-09-11T08:46:24.950Z,6.73
2022-09-11T08:49:02.373Z,6.80
2022-09-11T08:51:31.495Z,7.13
2022-09-11T08:54:02.454Z,7.10
2022-09-11T08:56:33.550Z,7.27
2022-09-11T08:59:19.998Z,7.27
2022-09-11T09:01:57.619Z,6.80
2022-09-11T09:04:45.468Z,7.50
2022-09-11T09:07:22.851Z,5.63
2022-09-11T09:10:04.202Z,5.87
2022-09-11T09:12:41.375Z,5.77
2022-09-11T09:15:32.620Z,5.77
2022-09-11T09:18:07.149Z,5.57
2022-09-11T09:20:38.558Z,4.90
2022-09-11T09:23:14.834Z,4.80
2022-09-11T09:25:44.619Z,4.97
2022-09-11T09:28:20.968Z,4.70
2022-09-11T09:30:52.829Z,4.50
2022-09-11T09:33:30.783Z,4.70
2022-09-11T09:36:01.315Z,4.50
2022-09-11T09:38:31.423Z,5.40
2022-09-11T09:41:34.738Z,4.70
2022-09-11T09:44:08.299Z,5.13
2022-09-11T09:46:41.732Z,5.60
2022-09-11T09:49:11.629Z,5.20
2022-09-11T09:51:40.522Z,5.90
2022-09-11T09:54:14.021Z,6.13
2022-09-11T09:56:49.377Z,5.70
2022-09-11T09:59:23.880Z,5.57
2022-09-11T10:01:55.093Z,5.50
2022-09-11T10:04:24.324Z,5.80
2022-09-11T10:06:54.128Z,6.07
2022-09-11T10:09:28.137Z,6.33
2022-09-11T10:12:03.005Z,5.63
2022-09-11T10:17:23.191Z,5.67
2022-09-11T10:19:52.831Z,5.33
2022-09-11T10:22:38.613Z,5.97
2022-09-11T10:25:12.349Z,5.70
2022-09-11T10:27:56.277Z,5.10
2022-09-11T10:30:28.044Z,5.73
2022-09-11T10:33:00.077Z,6.23
2022-09-11T10:35:32.898Z,6.17
2022-09-11T10:38:07.051Z,6.33
2022-09-11T10:40:34.788Z,6.10
2022-09-11T10:43:03.857Z,7.43
2022-09-11T10:45:33.262Z,6.90
2022-09-11T10:48:15.850Z,7.20
2022-09-11T10:50:44.899Z,5.87
2022-09-11T10:53:21.332Z,5.80
2022-09-11T10:55:57.744Z,5.30
2022-09-11T10:58:31.272Z,6.03
2022-09-11T11:00:58.948Z,5.80
2022-09-11T11:03:28.333Z,5.53
2022-09-11T11:06:16.442Z,6.10
2022-09-11T11:09:02.235Z,5.20
2022-09-11T11:11:46.075Z,5.10
2022-09-11T11:14:37.862Z,5.10
2022-09-11T11:17:16.850Z,5.07
2022-09-11T11:19:58.070Z,5.17
2022-09-11T11:22:45.668Z,5.00
2022-09-11T11:25:22.849Z,5.40
2022-09-11T11:28:11.759Z,6.20
2022-09-11T11:30:49.142Z,6.87
2022-09-11T11:33:42.697Z,6.10
2022-09-11T11:36:15.714Z,5.80
2022-09-11T11:38:48.462Z,6.10
2022-09-11T11:41:23.348Z,5.67
2022-09-11T11:43:54.086Z,5.50
2022-09-11T11:46:28.482Z,4.47
2022-09-11T11:49:01.077Z,4.80
2022-09-11T11:51:32.349Z,4.60
2022-09-11T11:54:06.648Z,4.20
2022-09-11T11:56:40.796Z,3.70
2022-09-11T11:59:16.277Z,4.10
2022-09-11T12:01:48.160Z,4.57
2022-09-11T12:04:30.964Z,4.30
2022-09-11T12:07:00.295Z,4.17
2022-09-11T12:09:33.609Z,4.83
2022-09-11T12:12:07.411Z,4.03
2022-09-11T12:14:35.264Z,4.00
2022-09-11T12:17:21.055Z,4.10
2022-09-11T12:20:17.559Z,3.70
2022-09-11T12:22:46.815Z,3.73
2022-09-11T12:25:53.597Z,4.10
2022-09-11T12:28:24.165Z,3.90
2022-09-11T12:30:59.276Z,3.50
2022-09-11T12:33:57.991Z,3.87
2022-09-11T12:36:37.289Z,4.00
2022-09-11T12:39:24.007Z,4.00
2022-09-11T12:41:51.782Z,4.07
2022-09-11T12:44:52.198Z,4.90
2022-09-11T12:47:23.338Z,5.40
2022-09-11T12:49:59.939Z,5.10
2022-09-11T12:52:47.875Z,5.67
2022-09-11T12:55:33.560Z,5.50
2022-09-11T12:58:04.961Z,6.07
2022-09-11T13:00:37.829Z,5.60
2022-09-11T13:03:08.064Z,5.53
2022-09-11T13:05:40.851Z,6.50
2022-09-11T13:08:16.520Z,6.40
2022-09-11T13:10:46.715Z,6.00
2022-09-11T13:13:44.573Z,6.20
2022-09-11T13:16:19.585Z,5.73
2022-09-11T13:18:47.387Z,5.30
2022-09-11T13:21:22.120Z,6.40
2022-09-11T13:23:50.983Z,5.30
2022-09-11T13:26:26.162Z,5.13
2022-09-11T13:28:57.510Z,5.97
2022-09-11T13:31:33.770Z,5.40
2022-09-11T13:34:04.661Z,5.80
2022-09-11T13:36:37.332Z,4.90
2022-09-11T13:39:06.086Z,4.77
2022-09-11T13:41:37.868Z,5.63
2022-09-11T13:44:11.279Z,5.10
2022-09-11T13:46:51.078Z,5.10
2022-09-11T13:49:30.387Z,5.43
2022-09-11T13:52:00.135Z,5.57
2022-09-11T13:54:31.859Z,6.37
2022-09-11T13:57:16.124Z,6.03
2022-09-11T13:59:49.446Z,6.00
2022-09-11T14:02:48.375Z,6.63
2022-09-11T14:05:20.533Z,6.23
2022-09-11T14:07:58.318Z,5.43
2022-09-11T14:10:29.314Z,6.80
2022-09-11T14:13:04.242Z,6.90
2022-09-11T14:15:40.246Z,6.47
2022-09-11T14:18:15.114Z,5.57
2022-09-11T14:20:46.089Z,4.67
2022-09-11T14:23:20.850Z,3.37
2022-09-11T14:26:14.706Z,4.07
2022-09-11T14:28:46.841Z,4.20
2022-09-11T14:31:29.366Z,4.37
2022-09-11T14:34:16.148Z,4.73
2022-09-11T14:36:47.179Z,4.33
2022-09-11T14:39:24.337Z,4.03
2022-09-11T14:41:53.228Z,3.63
2022-09-11T14:44:22.150Z,4.60
2022-09-11T14:46:50.239Z,4.50
2022-09-11T14:49:18.018Z,4.30
2022-09-11T14:51:51.348Z,5.27
2022-09-11T14:54:22.207Z,3.83
2022-09-11T14:56:50.305Z,3.60
2022-09-11T14:59:17.954Z,4.50
2022-09-11T15:01:45.871Z,4.60
2022-09-11T15:04:20.413Z,4.60
2022-09-11T15:06:51.411Z,4.63
2022-09-11T15:09:20.656Z,4.40
2022-09-11T15:11:50.430Z,4.80
2022-09-11T15:14:32.519Z,4.60
2022-09-11T15:17:08.627Z,4.27
2022-09-11T15:19:38.026Z,4.47
2022-09-11T15:22:06.900Z,4.07
2022-09-11T15:24:36.311Z,4.67
2022-09-11T15:27:04.804Z,4.17
2022-09-11T15:29:34.471Z,4.90
2022-09-11T15:32:03.485Z,3.90
2022-09-11T15:34:32.463Z,4.60
2022-09-11T15:37:00.372Z,4.90
2022-09-11T15:39:28.093Z,4.50
2022-09-11T15:41:57.359Z,4.30
2022-09-11T15:44:27.036Z,3.87
2022-09-11T15:46:56.417Z,4.40
2022-09-11T15:49:28.101Z,4.60
2022-09-11T15:51:56.361Z,4.53
2022-09-11T15:54:24.314Z,4.40
2022-09-11T15:56:52.876Z,4.63
2022-09-11T15:59:21.905Z,5.13
2022-09-11T16:01:50.089Z,4.70
2022-09-11T16:04:21.950Z,5.10
2022-09-11T16:06:50.451Z,4.50
2022-09-11T16:09:19.610Z,4.63
2022-09-11T16:11:48.813Z,4.57
2022-09-11T16:14:18.681Z,4.70
2022-09-11T16:16:48.040Z,4.67
2022-09-11T16:19:15.812Z,4.83
2022-09-11T16:21:43.646Z,4.50
2022-09-11T16:24:14.661Z,4.47
2022-09-11T16:26:43.033Z,4.77
2022-09-11T16:29:12.647Z,4.93
2022-09-11T16:31:40.783Z,5.53
2022-09-11T16:34:10.102Z,4.73
2022-09-11T16:36:39.276Z,4.90
2022-09-11T16:39:08.978Z,4.93
2022-09-11T16:41:37.800Z,4.80
2022-09-11T16:44:07.581Z,4.70
2022-09-11T16:46:36.257Z,4.80
2022-09-11T16:49:04.681Z,5.37
2022-09-11T16:51:35.290Z,4.70
2022-09-11T16:54:04.111Z,5.30
2022-09-11T16:56:31.832Z,4.83
2022-09-11T16:58:59.565Z,5.10
2022-09-11T17:01:28.500Z,4.87
2022-09-11T17:03:58.162Z,5.23
2022-09-11T17:06:32.207Z,4.77
2022-09-11T17:09:03.161Z,5.27
2022-09-11T17:11:33.125Z,5.07
2022-09-11T17:14:02.464Z,5.37
2022-09-11T17:16:32.242Z,5.00
2022-09-11T17:19:01.662Z,5.27
2022-09-11T17:21:30.541Z,5.47
2022-09-11T17:23:58.610Z,5.50
2022-09-11T17:26:27.639Z,5.73
2022-09-11T17:28:56.095Z,6.93
2022-09-11T17:31:23.922Z,6.33
2022-09-11T17:33:51.618Z,5.70
2022-09-11T17:36:22.221Z,6.13
2022-09-11T17:38:52.561Z,6.50
2022-09-11T17:41:21.903Z,6.40
2022-09-11T17:46:28.247Z,6.13
2022-09-11T17:48:56.325Z,5.90
2022-09-11T17:51:27.828Z,6.20
2022-09-11T17:53:57.216Z,6.57
2022-09-11T17:56:26.955Z,5.47
2022-09-11T17:58:59.513Z,6.10
2022-09-11T18:01:28.616Z,5.87
2022-09-11T18:03:58.274Z,5.57
2022-09-11T18:06:28.431Z,6.57
2022-09-11T18:09:01.899Z,6.67
2022-09-11T18:11:29.883Z,6.67
2022-09-11T18:14:00.506Z,6.37
2022-09-11T18:16:28.323Z,6.83
2022-09-11T18:18:56.596Z,6.67
2022-09-11T18:21:25.832Z,6.77
2022-09-11T18:23:54.629Z,6.47
2022-09-11T18:26:23.644Z,6.60
2022-09-11T18:28:51.650Z,6.03
2022-09-11T18:31:20.810Z,6.73
2022-09-11T18:33:54.636Z,6.70
2022-09-11T18:36:23.486Z,7.07
2022-09-11T18:38:51.655Z,7.00
2022-09-11T18:41:19.419Z,7.07
2022-09-11T18:43:47.086Z,6.47
2022-09-11T18:46:14.765Z,6.60
2022-09-11T18:48:45.661Z,6.93
2022-09-11T18:51:15.284Z,7.60
2022-09-11T18:53:43.880Z,8.40
2022-09-11T18:56:12.018Z,8.20
2022-09-11T18:58:41.055Z,8.03
2022-09-11T19:01:11.428Z,8.37
2022-09-11T19:03:42.087Z,6.50
2022-09-11T19:06:14.154Z,8.00
2022-09-11T19:08:43.308Z,7.43
2022-09-11T19:11:13.245Z,8.10
2022-09-11T19:13:42.235Z,7.60
2022-09-11T19:16:10.550Z,7.20
2022-09-11T19:18:39.458Z,7.60
2022-09-11T19:21:10.250Z,7.77
2022-09-11T19:23:42.021Z,7.17
2022-09-11T19:26:12.773Z,7.63
2022-09-11T19:28:42.518Z,7.97
2022-09-11T19:31:13.847Z,8.10
2022-09-11T19:33:44.384Z,7.70
2022-09-11T19:36:15.026Z,7.83
2022-09-11T19:38:45.697Z,8.03
2022-09-11T19:41:15.363Z,7.90
2022-09-11T19:43:44.962Z,8.70
2022-09-11T19:46:15.144Z,7.80
2022-09-11T19:48:44.255Z,7.30
2022-09-11T19:51:16.081Z,8.50
2022-09-11T19:53:45.650Z,7.87
2022-09-11T19:56:13.670Z,7.57
2022-09-11T19:58:42.885Z,7.47
2022-09-11T20:01:12.389Z,7.37
2022-09-11T20:03:41.761Z,7.63
2022-09-11T20:06:11.046Z,7.73
2022-09-11T20:08:40.238Z,7.90
2022-09-11T20:11:09.431Z,7.67
2022-09-11T20:13:37.368Z,7.77
2022-09-11T20:16:05.938Z,7.80
2022-09-11T20:18:33.726Z,8.00
2022-09-11T20:21:03.108Z,7.33
2022-09-11T20:23:30.882Z,7.07
2022-09-11T20:26:12.532Z,7.30
2022-09-11T20:28:42.870Z,7.50
2022-09-11T20:31:14.917Z,7.57
2022-09-11T20:33:43.271Z,7.50
2022-09-11T20:36:11.104Z,7.10
2022-09-11T20:38:38.877Z,8.60
2022-09-11T20:41:07.908Z,8.03
2022-09-11T20:43:37.369Z,7.63
2022-09-11T20:46:05.470Z,7.90
2022-09-11T20:48:33.644Z,8.23
2022-09-11T20:51:04.841Z,8.10
2022-09-11T20:53:32.713Z,7.30
2022-09-11T20:56:05.448Z,7.10
2022-09-11T20:58:33.375Z,7.70
2022-09-11T21:01:02.994Z,7.67
2022-09-11T21:03:31.254Z,7.10
2022-09-11T21:06:05.971Z,7.53
2022-09-11T21:08:34.197Z,7.63
2022-09-11T21:11:02.987Z,7.67
2022-09-11T21:13:30.966Z,8.60
2022-09-11T21:15:58.712Z,7.80
2022-09-11T21:18:27.833Z,7.87
2022-09-11T21:20:56.854Z,8.10
2022-09-11T21:23:24.965Z,7.77
2022-09-11T21:25:52.984Z,7.93
2022-09-11T21:28:21.062Z,7.57
2022-09-11T21:30:48.836Z,8.00
2022-09-11T21:33:16.563Z,8.00
2022-09-11T21:35:52.317Z,8.70
2022-09-11T21:38:20.913Z,8.00
2022-09-11T21:40:48.723Z,8.93
2022-09-11T21:43:16.468Z,8.40
2022-09-11T21:45:44.228Z,7.97
2022-09-11T21:48:12.288Z,7.10
2022-09-11T21:50:40.371Z,8.53
2022-09-11T21:53:10.731Z,7.37
2022-09-11T21:55:39.580Z,8.10
2022-09-11T21:58:07.773Z,7.93
2022-09-11T22:00:42.578Z,8.50
2022-09-11T22:03:12.171Z,8.70
2022-09-11T22:05:40.899Z,8.83
2022-09-11T22:08:10.142Z,8.07
2022-09-11T22:10:42.151Z,8.37
2022-09-11T22:13:11.031Z,9.00
2022-09-11T22:15:41.639Z,7.70
2022-09-11T22:18:09.442Z,7.30
2022-09-11T22:20:38.004Z,8.00
2022-09-11T22:23:06.048Z,8.00
2022-09-11T22:25:36.927Z,7.47
2022-09-11T22:28:04.922Z,7.57
2022-09-11T22:30:34.096Z,7.33
2022-09-11T22:33:02.143Z,8.77
2022-09-11T22:35:29.858Z,7.43
2022-09-11T22:37:57.635Z,7.43
2022-09-11T22:40:25.297Z,7.60
2022-09-11T22:42:54.370Z,8.00
2022-09-11T22:45:22.100Z,7.33
2022-09-11T22:47:49.876Z,7.87
2022-09-11T22:50:17.567Z,8.37
2022-09-11T22:52:45.654Z,7.67
2022-09-11T22:55:13.366Z,7.70
2022-09-11T22:57:41.035Z,7.80
2022-09-11T23:00:13.052Z,8.20
2022-09-11T23:02:40.729Z,7.60
2022-09-11T23:05:27.016Z,7.83
2022-09-11T23:07:54.925Z,7.80
2022-09-11T23:10:23.608Z,7.70
2022-09-11T23:12:51.496Z,6.80
2022-09-11T23:15:22.707Z,7.23
2022-09-11T23:17:50.402Z,7.57
2022-09-11T23:20:18.789Z,7.80
2022-09-11T23:22:46.536Z,7.27
2022-09-11T23:25:14.973Z,8.30
2022-09-11T23:27:45.322Z,7.80
2022-09-11T23:30:13.462Z,8.47
2022-09-11T23:32:42.503Z,7.90
2022-09-11T23:35:10.782Z,8.00
2022-09-11T23:37:42.355Z,7.77
2022-09-11T23:40:13.303Z,7.50
2022-09-11T23:42:41.031Z,7.70
2022-09-11T23:45:12.661Z,7.27
2022-09-11T23:47:42.799Z,8.03
2022-09-11T23:50:11.049Z,6.80
2022-09-11T23:52:39.584Z,7.40
2022-09-11T23:55:08.353Z,6.77
2022-09-11T23:57:36.022Z,7.60
